Date,TemperatureHighF,TemperatureAvgF,TemperatureLowF,DewpointHighF,DewpointAvgF,DewpointLowF,HumidityHigh,HumidityAvg,HumidityLow,PressureMaxIn,PressureMinIn,WindSpeedMaxMPH,WindSpeedAvgMPH,GustSpeedMaxMPH,PrecipitationSumIn
2013-2-1,52.4,39.1,22.6,31.6,21.0,7.1,91,51,24,59.79,30.00,26,5,34,0.00
2013-2-2,47.4,31.9,17.3,26.1,18.2,11.0,80,60,28,60.12,30.03,7,0,12,0.00
2013-2-3,52.7,39.2,28.5,36.1,29.0,22.5,85,68,41,59.76,29.87,12,2,20,0.00
2013-2-4,51.1,37.5,23.7,31.4,25.0,19.9,89,64,34,59.72,30.01,10,1,11,0.00
2013-2-5,61.6,47.1,36.1,43.4,36.6,30.0,94,69,40,59.78,29.90,15,2,19,0.00
2013-2-6,64.6,47.9,33.1,48.4,39.0,31.0,95,76,33,59.70,29.98,7,1,11,0.00
2013-2-7,61.6,50.8,40.3,54.0,47.9,38.7,99,90,65,59.99,29.82,19,4,26,0.00
2013-2-8,61.1,52.0,42.3,60.5,49.3,33.2,100,91,63,59.58,29.46,18,5,29,0.00
2013-2-9,52.9,41.6,26.7,34.2,27.1,22.8,88,59,32,59.71,30.00,18,4,24,0.00
2013-2-10,56.5,39.4,23.3,45.1,33.2,19.7,91,80,48,60.10,30.33,8,1,10,0.00
2013-2-11,63.5,58.9,45.8,60.0,53.7,42.7,94,83,65,60.06,29.94,19,4,24,0.00
2013-2-12,65.0,57.6,50.7,51.1,45.5,34.2,87,66,33,59.68,29.94,13,2,18,0.00
2013-2-13,58.2,52.4,48.0,53.7,48.5,43.3,91,87,82,59.72,29.66,10,2,16,0.00
2013-2-14,55.2,46.8,36.5,45.3,38.1,32.8,92,73,54,59.52,29.84,9,2,12,0.00
2013-2-15,58.6,42.5,30.0,47.6,35.7,26.0,91,79,43,30.10,29.81,8,1,10,0.00
2013-2-16,55.8,40.2,31.0,47.2,36.3,28.1,94,86,66,29.93,29.53,14,3,17,0.00
2013-2-17,39.4,32.3,21.6,32.3,22.3,9.9,92,70,32,30.30,29.68,18,4,25,0.00
2013-2-18,49.0,31.8,17.4,25.3,18.2,12.4,86,62,27,30.47,30.14,13,1,14,0.00
2013-2-19,63.7,46.8,27.5,54.4,41.4,24.0,93,82,69,30.26,29.75,21,4,27,0.00
2013-2-20,55.9,42.5,29.9,42.6,28.5,19.0,91,63,25,30.12,29.79,15,2,18,0.00
2013-2-21,54.3,38.5,25.0,33.6,28.1,22.2,92,71,32,30.26,29.93,10,1,13,0.00
2013-2-22,53.1,44.3,36.2,44.5,35.0,27.2,86,70,57,30.35,29.94,10,2,12,0.00
2013-2-23,61.8,53.9,48.1,59.3,50.7,44.1,94,89,86,30.08,29.67,13,1,16,0.00
2013-2-24,60.5,50.3,40.3,49.3,45.2,36.7,96,84,57,30.01,29.77,6,2,14,0.00
2013-2-25,47.1,42.4,37.8,41.5,33.7,29.5,92,72,57,30.20,30.02,7,3,19,0.00
2013-2-26,66.5,57.9,40.9,64.7,54.9,35.2,94,90,80,30.11,29.61,34,4,34,0.00
2013-2-27,62.4,52.7,42.1,58.3,45.7,40.2,96,79,49,29.81,29.61,15,3,23,0.00
2013-2-28,59.3,45.7,32.4,42.1,36.4,28.2,96,72,43,29.84,29.70,14,2,17,0.00